LXGB

Gibraltar Airport

Gibraltar, Gibraltar
TAF LXGB 160548Z 1606/1615 25008KT 9999 FEW020 SCT040
Issued Valid From Valid To
Jan-16 @ 05:48 UTC
(an hour ago)
Jan-16 @ 06:00 UTC
(49 minutes ago)
Jan-16 @ 15:00 UTC
(in 8 hours)
Jan-16 @ 06:00 to Jan-16 @ 15:00
TAF LXGB 160548Z 1606/1615 25008KT 9999 FEW020 SCT040
Wind Visibility Clouds
250° at 8 knots 10,000+ meters
  • Few at 2,000' AGL
  • Scattered at 4,000' AGL
TAF LXGB 160548Z 1606/1615 25008KT 9999 FEW020 SCT040
Issued Jan-16 @ 05:48 UTC
(an hour ago)
Valid From Jan-16 @ 06:00 UTC
(49 minutes ago)
Valid To Jan-16 @ 15:00 UTC
(in 8 hours)
Jan-16 @ 06:00 - Jan-16 @ 15:00
Wind Visibility
250° at 8 knots 10,000+ meters
Clouds
  • Few at 2,000' AGL
  • Scattered at 4,000' AGL